createdAt,value
2019-02-16T00:02:17.838Z,7.27
2019-02-16T00:05:08.143Z,6.93
2019-02-16T00:07:57.668Z,6.33
2019-02-16T00:10:47.107Z,6.27
2019-02-16T00:13:36.407Z,6.70
2019-02-16T00:16:28.416Z,6.47
2019-02-16T00:19:17.602Z,6.50
2019-02-16T00:22:07.115Z,6.20
2019-02-16T00:24:56.748Z,6.73
2019-02-16T00:27:45.945Z,6.30
2019-02-16T00:30:35.534Z,6.90
2019-02-16T00:33:26.678Z,6.50
2019-02-16T00:35:59.364Z,6.60
2019-02-16T00:38:48.566Z,6.17
2019-02-16T00:41:38.228Z,7.20
2019-02-16T00:44:08.352Z,6.70
2019-02-16T00:46:38.518Z,5.90
2019-02-16T00:49:27.810Z,5.80
2019-02-16T00:54:51.582Z,6.27
2019-02-16T00:57:40.873Z,5.87
2019-02-16T01:00:30.347Z,5.83
2019-02-16T01:03:19.526Z,5.73
2019-02-16T01:06:09.326Z,6.43
2019-02-16T01:08:58.559Z,6.03
2019-02-16T01:11:48.036Z,6.70
2019-02-16T01:14:18.250Z,6.23
2019-02-16T01:17:07.712Z,5.93
2019-02-16T01:19:48.966Z,5.90
2019-02-16T01:22:30.747Z,6.47
2019-02-16T01:25:01.206Z,6.30
2019-02-16T01:27:50.425Z,6.63
2019-02-16T01:30:20.572Z,6.70
2019-02-16T01:32:51.074Z,6.47
2019-02-16T01:35:21.238Z,6.53
2019-02-16T01:37:51.409Z,6.10
2019-02-16T01:40:21.581Z,6.70
2019-02-16T01:42:51.765Z,6.40
2019-02-16T01:45:21.923Z,6.90
2019-02-16T01:47:53.184Z,7.83
2019-02-16T01:50:42.890Z,7.43
2019-02-16T01:53:13.016Z,6.93
2019-02-16T01:55:43.230Z,7.07
2019-02-16T01:58:32.921Z,7.63
2019-02-16T02:01:03.050Z,7.13
2019-02-16T02:03:52.357Z,6.57
2019-02-16T02:06:41.898Z,6.90
2019-02-16T02:09:12.320Z,7.23
2019-02-16T02:11:44.797Z,6.60
2019-02-16T02:14:34.064Z,6.60
2019-02-16T02:17:04.449Z,8.13
2019-02-16T02:19:34.651Z,7.20
2019-02-16T02:22:05.228Z,7.83
2019-02-16T02:24:35.381Z,6.77
2019-02-16T02:27:05.534Z,7.63
2019-02-16T02:29:35.991Z,7.43
2019-02-16T02:32:25.654Z,7.37
2019-02-16T02:34:56.094Z,7.17
2019-02-16T02:37:26.313Z,7.33
2019-02-16T02:39:56.468Z,6.90
2019-02-16T02:42:45.701Z,7.03
2019-02-16T02:45:15.958Z,7.10
2019-02-16T02:47:46.206Z,7.23
2019-02-16T02:50:17.352Z,7.60
2019-02-16T02:53:06.660Z,6.70
2019-02-16T02:55:56.103Z,7.97
2019-02-16T02:58:45.673Z,7.00
2019-02-16T03:01:35.088Z,7.50
2019-02-16T03:04:25.213Z,6.90
2019-02-16T03:06:55.425Z,7.03
2019-02-16T03:09:44.922Z,7.27
2019-02-16T03:12:34.141Z,7.73
2019-02-16T03:15:23.584Z,7.93
2019-02-16T03:18:12.926Z,7.47
2019-02-16T03:20:54.254Z,7.87
2019-02-16T03:23:36.014Z,8.53
2019-02-16T03:26:18.489Z,7.93
2019-02-16T03:29:00.200Z,9.07
2019-02-16T03:31:41.902Z,6.83
2019-02-16T03:34:16.702Z,6.80
2019-02-16T03:37:24.963Z,7.90
2019-02-16T03:40:14.233Z,7.63
2019-02-16T03:43:03.791Z,8.10
2019-02-16T03:45:53.302Z,7.87
2019-02-16T03:48:23.530Z,6.47
2019-02-16T03:50:53.800Z,7.80
2019-02-16T03:53:43.276Z,7.63
2019-02-16T03:56:32.757Z,7.60
2019-02-16T03:59:22.233Z,7.40
2019-02-16T04:01:52.502Z,7.60
2019-02-16T04:04:22.999Z,6.73
2019-02-16T04:06:53.315Z,6.87
2019-02-16T04:09:42.618Z,7.50
2019-02-16T04:12:32.579Z,7.23
2019-02-16T04:15:22.153Z,7.10
2019-02-16T04:18:11.349Z,6.70
2019-02-16T04:21:00.842Z,7.83
2019-02-16T04:23:50.081Z,6.50
2019-02-16T04:26:40.634Z,5.87
2019-02-16T04:29:30.600Z,6.27
2019-02-16T04:32:20.090Z,6.63
2019-02-16T04:34:50.259Z,5.60
2019-02-16T04:37:20.505Z,7.17
2019-02-16T04:39:51.001Z,6.37
2019-02-16T04:42:21.214Z,5.97
2019-02-16T04:44:51.378Z,5.70
2019-02-16T04:47:22.096Z,5.70
2019-02-16T04:49:52.324Z,5.60
2019-02-16T04:52:22.490Z,6.00
2019-02-16T04:54:52.923Z,5.43
2019-02-16T04:57:42.131Z,6.80
2019-02-16T05:00:31.663Z,5.77
2019-02-16T05:03:21.029Z,6.87
2019-02-16T05:06:10.348Z,6.57
2019-02-16T05:09:00.586Z,6.63
2019-02-16T05:11:30.715Z,6.37
2019-02-16T05:14:01.139Z,6.37
2019-02-16T05:16:31.351Z,6.07
2019-02-16T05:19:01.862Z,6.37
2019-02-16T05:21:32.020Z,6.90
2019-02-16T05:24:11.939Z,6.83
2019-02-16T05:26:42.488Z,6.57
2019-02-16T05:29:31.932Z,6.60
2019-02-16T05:32:02.118Z,6.53
2019-02-16T05:34:51.615Z,6.93
2019-02-16T05:37:21.861Z,6.63
2019-02-16T05:39:52.050Z,7.20
2019-02-16T05:42:23.882Z,6.37
2019-02-16T05:44:55.207Z,6.53
2019-02-16T05:47:25.342Z,5.93
2019-02-16T05:50:14.891Z,6.77
2019-02-16T05:53:04.144Z,7.20
2019-02-16T05:55:34.302Z,6.60
2019-02-16T05:58:24.463Z,6.67
2019-02-16T06:00:54.833Z,7.23
2019-02-16T06:03:24.990Z,6.60
2019-02-16T06:05:55.202Z,7.10
2019-02-16T06:08:26.919Z,6.37
2019-02-16T06:10:57.113Z,6.63
2019-02-16T06:13:27.290Z,6.43
2019-02-16T06:16:16.497Z,7.00
2019-02-16T06:19:05.784Z,6.43
2019-02-16T06:21:36.017Z,5.97
2019-02-16T06:24:17.644Z,6.30
2019-02-16T06:26:48.109Z,6.43
2019-02-16T06:29:18.342Z,5.70
2019-02-16T06:31:48.500Z,5.47
2019-02-16T06:34:18.706Z,6.80
2019-02-16T06:36:49.125Z,5.50
2019-02-16T06:39:19.454Z,6.37
2019-02-16T06:42:09.101Z,6.23
2019-02-16T06:44:58.749Z,5.83
2019-02-16T06:47:28.879Z,6.63
2019-02-16T06:49:59.480Z,6.83
2019-02-16T06:52:48.714Z,7.13
2019-02-16T06:57:46.823Z,6.30
2019-02-16T07:00:19.512Z,6.50
2019-02-16T07:03:09.396Z,7.30
2019-02-16T07:05:39.615Z,7.10
2019-02-16T07:08:09.773Z,7.27
2019-02-16T07:10:40.853Z,7.40
2019-02-16T07:13:11.419Z,6.27
2019-02-16T07:15:41.871Z,7.20
2019-02-16T07:18:32.031Z,7.93
2019-02-16T07:21:02.206Z,7.30
2019-02-16T07:23:32.365Z,7.13
2019-02-16T07:26:02.543Z,6.93
2019-02-16T07:28:34.017Z,7.50
2019-02-16T07:31:04.301Z,8.10
2019-02-16T07:33:37.715Z,8.37
2019-02-16T07:36:08.051Z,7.37
2019-02-16T07:38:38.471Z,7.97
2019-02-16T07:41:09.106Z,7.33
2019-02-16T07:43:58.180Z,7.77
2019-02-16T07:46:46.020Z,7.70
2019-02-16T07:49:29.946Z,7.97
2019-02-16T07:52:28.982Z,8.33
2019-02-16T07:55:03.440Z,8.87
2019-02-16T07:58:01.943Z,8.37
2019-02-16T08:00:54.535Z,8.73
2019-02-16T08:04:06.308Z,9.20
2019-02-16T08:07:19.018Z,8.87
2019-02-16T08:16:17.593Z,7.67
2019-02-16T08:19:12.652Z,7.73
2019-02-16T08:22:38.365Z,7.77
2019-02-16T08:28:40.335Z,8.77
2019-02-16T08:31:32.484Z,8.13
2019-02-16T08:34:21.506Z,7.53
2019-02-16T08:37:29.678Z,7.90
2019-02-16T08:40:37.845Z,7.77
2019-02-16T08:43:26.995Z,8.17
2019-02-16T08:46:16.141Z,7.97
2019-02-16T08:49:05.712Z,7.27
2019-02-16T08:52:19.266Z,7.60
2019-02-16T08:55:08.318Z,7.50
2019-02-16T08:58:16.711Z,7.40
2019-02-16T09:01:06.074Z,7.40
2019-02-16T09:04:15.137Z,7.50
2019-02-16T09:07:04.134Z,7.80
2019-02-16T09:10:06.508Z,7.30
2019-02-16T09:13:14.890Z,6.80
2019-02-16T09:22:40.459Z,6.17
2019-02-16T09:32:36.377Z,5.77
2019-02-16T09:35:26.607Z,5.33
2019-02-16T09:38:34.985Z,6.20
2019-02-16T09:41:33.234Z,6.27
2019-02-16T09:44:17.448Z,6.53
2019-02-16T09:47:29.150Z,7.03
2019-02-16T09:50:04.330Z,7.13
2019-02-16T09:53:20.751Z,7.10
2019-02-16T09:56:09.819Z,7.43
2019-02-16T09:59:18.225Z,6.80
2019-02-16T10:02:27.343Z,6.97
2019-02-16T10:05:31.220Z,7.47
2019-02-16T10:11:15.810Z,7.63
2019-02-16T10:13:53.953Z,7.93
2019-02-16T10:16:56.071Z,6.80
2019-02-16T10:19:35.843Z,7.70
2019-02-16T10:22:25.401Z,8.13
2019-02-16T10:25:15.175Z,7.87
2019-02-16T10:28:08.303Z,7.97
2019-02-16T10:30:57.510Z,7.37
2019-02-16T10:33:46.723Z,7.40
2019-02-16T10:36:56.416Z,8.57
2019-02-16T10:40:04.525Z,8.43
2019-02-16T10:43:12.610Z,7.97
2019-02-16T10:46:20.846Z,7.50
2019-02-16T10:48:57.387Z,7.90
2019-02-16T10:51:46.520Z,7.60
2019-02-16T10:54:35.845Z,8.10
2019-02-16T10:57:34.514Z,7.50
2019-02-16T11:00:33.006Z,7.60
2019-02-16T11:03:22.050Z,7.17
2019-02-16T11:06:11.155Z,7.83
2019-02-16T11:09:02.528Z,7.77
2019-02-16T11:11:50.026Z,8.20
2019-02-16T11:14:39.488Z,6.77
2019-02-16T11:17:47.669Z,7.87
2019-02-16T11:20:36.773Z,6.80
2019-02-16T11:23:19.245Z,7.53
2019-02-16T11:26:08.329Z,7.70
2019-02-16T11:29:12.865Z,7.60
2019-02-16T11:32:02.336Z,7.20
2019-02-16T11:35:13.628Z,7.27
2019-02-16T11:38:03.487Z,7.67
2019-02-16T11:40:52.674Z,10.07
2019-02-16T11:43:57.886Z,8.93
2019-02-16T11:46:47.022Z,9.80
2019-02-16T11:53:05.916Z,9.40
2019-02-16T11:56:03.153Z,10.47
2019-02-16T11:58:50.421Z,9.33
2019-02-16T12:01:40.811Z,9.70
2019-02-16T12:04:46.289Z,9.57
2019-02-16T12:07:40.470Z,10.00
2019-02-16T12:10:16.916Z,9.73
2019-02-16T12:15:59.911Z,9.37
2019-02-16T12:18:38.444Z,10.27
2019-02-16T12:25:05.780Z,10.33
2019-02-16T12:28:12.248Z,9.70
2019-02-16T12:31:20.399Z,9.73
2019-02-16T12:34:07.826Z,9.60
2019-02-16T12:37:21.839Z,10.37
2019-02-16T12:40:12.012Z,11.03
2019-02-16T12:43:23.469Z,10.10
2019-02-16T12:46:19.279Z,9.37
2019-02-16T12:49:08.447Z,9.33
2019-02-16T12:52:16.517Z,9.43
2019-02-16T12:55:14.225Z,9.60
2019-02-16T13:03:45.859Z,9.27
2019-02-16T13:06:34.946Z,9.60
2019-02-16T13:09:23.012Z,9.40
2019-02-16T13:12:12.156Z,10.20
2019-02-16T13:15:01.234Z,9.70
2019-02-16T13:18:09.391Z,9.40
2019-02-16T13:21:01.659Z,9.40
2019-02-16T13:23:39.824Z,9.67
2019-02-16T13:26:17.930Z,10.10
2019-02-16T13:29:07.032Z,10.23
2019-02-16T13:32:15.685Z,9.60
2019-02-16T13:35:04.920Z,9.53
2019-02-16T13:38:13.326Z,9.17
2019-02-16T13:41:02.774Z,9.20
2019-02-16T13:43:51.805Z,8.37
2019-02-16T13:46:59.966Z,7.03
2019-02-16T13:49:36.184Z,6.67
2019-02-16T13:52:25.267Z,6.73
2019-02-16T13:55:14.378Z,6.37
2019-02-16T13:58:03.532Z,6.63
2019-02-16T14:01:05.313Z,6.83
2019-02-16T14:09:42.949Z,6.60
2019-02-16T14:12:51.294Z,6.17
2019-02-16T14:15:40.475Z,6.50
2019-02-16T14:18:10.690Z,5.97
2019-02-16T14:20:41.186Z,5.87
2019-02-16T14:23:30.371Z,6.50
2019-02-16T14:26:20.068Z,6.00
2019-02-16T14:28:50.252Z,5.60
2019-02-16T14:31:28.224Z,5.80
2019-02-16T14:33:52.423Z,5.47
2019-02-16T14:39:29.434Z,6.50
2019-02-16T14:42:18.910Z,5.70
2019-02-16T14:44:49.517Z,5.43
2019-02-16T14:47:19.758Z,5.63
2019-02-16T14:50:09.575Z,6.03
2019-02-16T14:52:39.787Z,5.23
2019-02-16T14:55:14.068Z,6.80
2019-02-16T14:58:03.089Z,6.03
2019-02-16T15:00:33.223Z,5.70
2019-02-16T15:03:22.707Z,5.83
2019-02-16T15:05:53.091Z,6.30
2019-02-16T15:08:23.362Z,5.40
2019-02-16T15:10:53.508Z,6.17
2019-02-16T15:13:44.947Z,5.23
2019-02-16T15:16:34.188Z,4.73
2019-02-16T15:19:04.436Z,5.07
2019-02-16T15:21:34.968Z,4.80
2019-02-16T15:24:05.325Z,5.20
2019-02-16T15:26:35.592Z,4.67
2019-02-16T15:29:05.935Z,5.40
2019-02-16T15:31:36.103Z,5.00
2019-02-16T15:34:25.851Z,5.60
2019-02-16T15:37:07.263Z,6.70
2019-02-16T15:39:38.585Z,6.13
2019-02-16T15:42:09.680Z,6.50
2019-02-16T15:44:39.864Z,6.33
2019-02-16T15:47:10.137Z,6.60
2019-02-16T15:49:41.182Z,6.53
2019-02-16T15:52:30.432Z,6.67
2019-02-16T15:55:19.854Z,6.53
2019-02-16T15:57:50.076Z,6.33
2019-02-16T16:00:22.864Z,6.23
2019-02-16T16:02:53.235Z,5.87
2019-02-16T16:05:42.974Z,5.60
2019-02-16T16:08:34.965Z,5.87
2019-02-16T16:11:43.424Z,6.53
2019-02-16T16:14:51.450Z,5.93
2019-02-16T16:17:44.026Z,7.07
2019-02-16T16:20:52.127Z,6.53
2019-02-16T16:23:31.358Z,6.83
2019-02-16T16:26:19.214Z,6.43
2019-02-16T16:29:07.453Z,6.03
2019-02-16T16:31:57.174Z,6.50
2019-02-16T16:34:46.672Z,6.77
2019-02-16T16:37:27.119Z,7.13
2019-02-16T16:40:16.299Z,5.67
2019-02-16T16:43:18.168Z,7.00
2019-02-16T16:46:04.095Z,7.70
2019-02-16T16:48:53.150Z,6.60
2019-02-16T16:51:42.521Z,7.50
2019-02-16T16:54:18.691Z,6.93
2019-02-16T17:00:02.000Z,6.60
2019-02-16T17:03:03.722Z,6.53
2019-02-16T17:05:59.178Z,6.60
2019-02-16T17:09:09.433Z,7.00
2019-02-16T17:12:17.545Z,7.30
2019-02-16T17:15:06.876Z,6.67
2019-02-16T17:17:56.186Z,7.03
2019-02-16T17:20:42.580Z,7.83
2019-02-16T17:23:21.908Z,8.43
2019-02-16T17:26:12.266Z,8.03
2019-02-16T17:29:01.818Z,7.00
2019-02-16T17:32:00.979Z,7.40
2019-02-16T17:38:14.730Z,7.23
2019-02-16T17:41:04.304Z,7.17
2019-02-16T17:46:46.877Z,7.53
2019-02-16T17:52:30.330Z,7.03
2019-02-16T17:55:25.371Z,7.47
2019-02-16T17:58:16.901Z,7.27
2019-02-16T18:01:07.492Z,7.13
2019-02-16T18:04:15.989Z,8.07
2019-02-16T18:07:05.504Z,7.53
2019-02-16T18:10:18.481Z,7.80
2019-02-16T18:13:10.927Z,8.30
2019-02-16T18:16:01.976Z,8.40
2019-02-16T18:18:52.256Z,8.60
2019-02-16T18:21:41.702Z,8.47
2019-02-16T18:24:30.767Z,9.63
2019-02-16T18:27:21.815Z,9.13
2019-02-16T18:30:30.197Z,10.17
2019-02-16T18:36:10.473Z,11.00
2019-02-16T18:39:07.399Z,11.47
2019-02-16T18:41:56.750Z,11.43
2019-02-16T18:44:54.869Z,12.63
2019-02-16T18:48:03.035Z,12.03
2019-02-16T18:50:52.529Z,12.27
2019-02-16T18:53:41.787Z,12.50
2019-02-16T18:56:31.331Z,13.43
2019-02-16T18:59:19.036Z,11.63
2019-02-16T19:01:59.634Z,11.80
2019-02-16T19:05:08.318Z,12.67
2019-02-16T19:07:57.649Z,12.10
2019-02-16T19:10:48.025Z,11.33
2019-02-16T19:13:56.333Z,12.00
2019-02-16T19:16:45.435Z,12.47
2019-02-16T19:19:34.982Z,11.50
2019-02-16T19:22:43.534Z,11.20
2019-02-16T19:25:51.738Z,11.40
2019-02-16T19:28:41.110Z,11.90
2019-02-16T19:31:30.587Z,11.43
2019-02-16T19:34:16.721Z,12.10
2019-02-16T19:37:09.696Z,12.67
2019-02-16T19:40:03.875Z,12.17
2019-02-16T19:46:13.003Z,10.53
2019-02-16T19:49:21.495Z,10.60
2019-02-16T19:52:10.859Z,10.93
2019-02-16T19:55:18.923Z,10.67
2019-02-16T19:58:27.133Z,10.33
2019-02-16T20:04:43.456Z,9.67
2019-02-16T20:07:33.265Z,9.83
2019-02-16T20:10:41.864Z,10.00
2019-02-16T20:13:31.489Z,10.17
2019-02-16T20:19:29.854Z,10.00
2019-02-16T20:22:38.206Z,9.97
2019-02-16T20:25:47.258Z,9.60
2019-02-16T20:28:36.292Z,8.77
2019-02-16T20:31:44.434Z,8.40
2019-02-16T20:34:21.397Z,9.40
2019-02-16T20:37:29.787Z,9.77
2019-02-16T20:40:19.140Z,8.80
2019-02-16T20:43:00.281Z,8.70
2019-02-16T20:45:37.819Z,9.60
2019-02-16T20:48:37.271Z,9.57
2019-02-16T20:54:40.621Z,10.03
2019-02-16T20:57:32.571Z,9.53
2019-02-16T21:00:48.052Z,11.17
2019-02-16T21:03:56.229Z,10.93
2019-02-16T21:06:45.281Z,10.60
2019-02-16T21:09:34.588Z,9.87
2019-02-16T21:12:14.164Z,10.53
2019-02-16T21:18:11.646Z,11.73
2019-02-16T21:21:19.795Z,11.00
2019-02-16T21:23:59.422Z,10.73
2019-02-16T21:27:07.880Z,10.93
2019-02-16T21:29:46.718Z,11.07
2019-02-16T21:32:35.789Z,10.37
2019-02-16T21:35:40.005Z,10.17
2019-02-16T21:38:29.064Z,10.43
2019-02-16T21:41:05.532Z,11.03
2019-02-16T21:43:54.878Z,10.60
2019-02-16T21:46:43.998Z,10.63
2019-02-16T21:49:54.002Z,11.73
2019-02-16T21:52:43.240Z,10.80
2019-02-16T21:55:32.517Z,11.50
2019-02-16T21:58:21.984Z,10.17
2019-02-16T22:01:31.308Z,12.17
2019-02-16T22:04:20.625Z,10.57
2019-02-16T22:07:09.724Z,10.57
2019-02-16T22:09:58.756Z,10.83
2019-02-16T22:13:06.821Z,11.87
2019-02-16T22:15:36.958Z,11.87
2019-02-16T22:18:26.501Z,12.40
2019-02-16T22:20:56.631Z,11.87
2019-02-16T22:23:45.832Z,12.03
2019-02-16T22:26:16.080Z,11.83
2019-02-16T22:29:05.783Z,11.80
2019-02-16T22:31:55.370Z,12.17
2019-02-16T22:34:25.623Z,13.30
2019-02-16T22:37:15.058Z,13.73
2019-02-16T22:40:04.779Z,11.97
2019-02-16T22:42:34.942Z,13.87
2019-02-16T22:45:16.578Z,11.77
2019-02-16T22:47:47.029Z,13.80
2019-02-16T22:50:19.274Z,11.63
2019-02-16T22:53:08.727Z,12.30
2019-02-16T22:55:39.018Z,13.00
2019-02-16T22:58:29.348Z,12.30
2019-02-16T23:01:00.700Z,13.23
2019-02-16T23:03:50.300Z,13.33
2019-02-16T23:06:20.458Z,12.27
2019-02-16T23:08:50.699Z,11.67
2019-02-16T23:11:21.173Z,11.03
2019-02-16T23:13:51.421Z,12.07
2019-02-16T23:16:21.560Z,12.47
2019-02-16T23:18:51.816Z,13.07
2019-02-16T23:21:22.313Z,12.73
2019-02-16T23:23:52.551Z,12.43
2019-02-16T23:26:22.757Z,12.23
2019-02-16T23:28:53.262Z,12.60
2019-02-16T23:31:23.462Z,11.57
2019-02-16T23:33:53.644Z,12.10
2019-02-16T23:36:23.764Z,11.40
2019-02-16T23:38:54.509Z,11.60
2019-02-16T23:41:24.718Z,12.30
2019-02-16T23:43:54.939Z,11.73
2019-02-16T23:46:36.215Z,11.87
2019-02-16T23:49:16.425Z,11.73
2019-02-16T23:51:46.563Z,11.73
2019-02-16T23:54:35.809Z,12.23
2019-02-16T23:57:05.954Z,10.90
2019-02-16T23:59:55.417Z,11.00
